createdAt,value
2022-12-05T00:01:11.352Z,5.60
2022-12-05T00:02:31.894Z,5.60
2022-12-05T00:03:57.688Z,5.60
2022-12-05T00:05:18.722Z,5.60
2022-12-05T00:06:43.546Z,5.60
2022-12-05T00:08:04.359Z,5.60
2022-12-05T00:09:25.144Z,5.60
2022-12-05T00:10:45.767Z,5.60
2022-12-05T00:12:06.733Z,5.60
2022-12-05T00:13:27.354Z,5.60
2022-12-05T00:14:48.175Z,5.70
2022-12-05T00:16:10.286Z,5.70
2022-12-05T00:17:32.014Z,5.70
2022-12-05T00:18:52.969Z,5.70
2022-12-05T00:20:13.589Z,5.70
2022-12-05T00:21:36.732Z,5.70
2022-12-05T00:22:58.605Z,5.70
2022-12-05T00:24:19.250Z,5.70
2022-12-05T00:25:40.433Z,5.80
2022-12-05T00:27:01.166Z,5.80
2022-12-05T00:28:22.080Z,5.80
2022-12-05T00:29:42.697Z,5.80
2022-12-05T00:31:03.984Z,5.80
2022-12-05T00:32:24.778Z,5.80
2022-12-05T00:33:45.651Z,5.80
2022-12-05T00:35:07.007Z,5.80
2022-12-05T00:36:31.540Z,5.90
2022-12-05T00:37:52.133Z,5.80
2022-12-05T00:39:14.214Z,5.80
2022-12-05T00:40:35.521Z,5.80
2022-12-05T00:41:56.399Z,5.70
2022-12-05T00:43:17.133Z,5.70
2022-12-05T00:44:37.961Z,5.70
2022-12-05T00:46:01.665Z,5.80
2022-12-05T00:47:22.494Z,5.80
2022-12-05T00:48:43.564Z,5.80
2022-12-05T00:50:04.652Z,5.80
2022-12-05T00:51:27.546Z,5.90
2022-12-05T00:52:47.934Z,5.90
2022-12-05T00:54:10.271Z,5.90
2022-12-05T00:55:32.233Z,6.00
2022-12-05T00:56:52.558Z,5.90
2022-12-05T00:58:13.103Z,5.90
2022-12-05T00:59:33.664Z,5.90
2022-12-05T01:00:54.444Z,5.90
2022-12-05T01:02:15.168Z,5.90
2022-12-05T01:03:36.092Z,6.00
2022-12-05T01:04:56.750Z,5.90
2022-12-05T01:06:17.464Z,5.90
2022-12-05T01:07:38.319Z,6.00
2022-12-05T01:08:59.180Z,6.00
2022-12-05T01:10:19.970Z,6.00
2022-12-05T01:11:42.165Z,5.90
2022-12-05T01:13:02.501Z,5.90
2022-12-05T01:14:24.815Z,5.90
2022-12-05T01:15:45.468Z,6.00
2022-12-05T01:17:06.308Z,6.00
2022-12-05T01:18:27.334Z,6.00
2022-12-05T01:19:47.691Z,6.00
2022-12-05T01:21:08.679Z,6.00
2022-12-05T01:22:29.338Z,6.00
2022-12-05T01:23:50.208Z,6.10
2022-12-05T01:25:10.976Z,6.10
2022-12-05T01:26:31.624Z,6.10
2022-12-05T01:27:53.752Z,6.10
2022-12-05T01:29:16.388Z,6.10
2022-12-05T01:30:38.438Z,6.10
2022-12-05T01:31:58.955Z,6.10
2022-12-05T01:33:19.583Z,6.10
2022-12-05T01:34:40.267Z,6.00
2022-12-05T01:36:00.912Z,6.10
2022-12-05T01:37:21.391Z,6.10
2022-12-05T01:38:42.758Z,6.10
2022-12-05T01:40:03.682Z,6.10
2022-12-05T01:41:25.934Z,6.10
2022-12-05T01:42:46.717Z,6.00
2022-12-05T01:44:46.798Z,6.00
2022-12-05T01:46:07.519Z,6.00
2022-12-05T01:47:28.622Z,6.00
2022-12-05T01:48:49.315Z,6.00
2022-12-05T01:50:10.267Z,6.00
2022-12-05T01:51:32.602Z,6.00
2022-12-05T01:52:53.080Z,6.00
2022-12-05T01:54:14.308Z,6.00
2022-12-05T01:55:35.827Z,6.00
2022-12-05T01:56:56.635Z,6.10
2022-12-05T01:58:18.154Z,6.10
2022-12-05T01:59:41.784Z,6.10
2022-12-05T02:01:03.658Z,6.10
2022-12-05T02:02:24.429Z,6.10
2022-12-05T02:03:45.544Z,6.10
2022-12-05T02:05:08.109Z,6.10
2022-12-05T02:06:28.949Z,6.10
2022-12-05T02:07:49.867Z,6.20
2022-12-05T02:09:10.326Z,6.20
2022-12-05T02:10:34.128Z,6.20
2022-12-05T02:11:57.067Z,6.20
2022-12-05T02:13:27.860Z,6.10
2022-12-05T02:14:59.504Z,6.20
2022-12-05T02:16:27.155Z,6.20
2022-12-05T02:17:54.322Z,6.10
2022-12-05T02:19:53.089Z,6.10
2022-12-05T02:21:29.112Z,6.20
2022-12-05T02:23:09.558Z,6.20
2022-12-05T02:24:55.803Z,6.20
2022-12-05T02:26:42.134Z,6.20
2022-12-05T02:28:14.875Z,6.10
2022-12-05T02:29:54.986Z,6.20
2022-12-05T02:31:18.865Z,6.20
2022-12-05T02:32:54.180Z,6.20
2022-12-05T02:34:18.383Z,6.20
2022-12-05T02:35:44.895Z,6.20
2022-12-05T02:37:10.621Z,6.20
2022-12-05T02:38:35.950Z,6.20
2022-12-05T02:40:03.379Z,6.20
2022-12-05T02:41:28.029Z,6.30
2022-12-05T02:42:53.150Z,6.30
2022-12-05T02:44:16.003Z,6.30
2022-12-05T02:45:39.345Z,6.20
2022-12-05T02:47:00.669Z,6.20
2022-12-05T02:48:21.426Z,6.20
2022-12-05T02:49:42.861Z,6.10
2022-12-05T02:51:04.270Z,6.20
2022-12-05T02:52:25.316Z,6.10
2022-12-05T02:53:46.306Z,6.20
2022-12-05T02:55:08.274Z,6.20
2022-12-05T02:56:30.527Z,6.30
2022-12-05T02:57:54.704Z,6.30
2022-12-05T02:59:21.526Z,6.30
2022-12-05T03:00:48.806Z,6.30
2022-12-05T03:02:09.530Z,6.20
2022-12-05T03:03:30.872Z,6.30
2022-12-05T03:04:51.487Z,6.30
2022-12-05T03:06:14.555Z,6.30
2022-12-05T03:07:36.913Z,6.30
2022-12-05T03:09:00.963Z,6.30
2022-12-05T03:10:24.446Z,6.30
2022-12-05T03:11:47.998Z,6.30
2022-12-05T03:13:11.567Z,6.30
2022-12-05T03:14:35.198Z,6.30
2022-12-05T03:16:01.462Z,6.30
2022-12-05T03:17:24.194Z,6.30
2022-12-05T03:18:48.201Z,6.30
2022-12-05T03:20:13.746Z,6.40
2022-12-05T03:21:37.003Z,6.40
2022-12-05T03:22:59.427Z,6.40
2022-12-05T03:24:20.182Z,6.30
2022-12-05T03:25:46.888Z,6.30
2022-12-05T03:27:12.695Z,6.30
2022-12-05T03:28:40.164Z,6.30
2022-12-05T03:30:06.639Z,6.40
2022-12-05T03:31:42.389Z,6.30
2022-12-05T03:33:05.333Z,6.30
2022-12-05T03:34:36.055Z,6.30
2022-12-05T03:36:01.580Z,6.30
2022-12-05T03:37:27.363Z,6.30
2022-12-05T03:38:52.183Z,6.30
2022-12-05T03:40:22.127Z,6.40
2022-12-05T03:41:48.984Z,6.40
2022-12-05T03:43:13.870Z,6.30
2022-12-05T03:44:38.778Z,6.30
2022-12-05T03:46:04.490Z,6.30
2022-12-05T03:47:31.932Z,6.40
2022-12-05T03:48:55.761Z,6.40
2022-12-05T03:50:26.136Z,6.40
2022-12-05T03:51:52.148Z,6.40
2022-12-05T03:53:20.851Z,6.40
2022-12-05T03:54:45.536Z,6.30
2022-12-05T03:56:10.447Z,6.30
2022-12-05T03:57:34.676Z,6.30
2022-12-05T03:58:59.980Z,6.30
2022-12-05T04:00:22.421Z,6.20
2022-12-05T04:01:44.672Z,6.30
2022-12-05T04:03:08.225Z,6.40
2022-12-05T04:04:31.734Z,6.40
2022-12-05T04:05:54.236Z,6.40
2022-12-05T04:07:17.008Z,6.40
2022-12-05T04:08:41.015Z,6.40
2022-12-05T04:10:05.373Z,6.40
2022-12-05T04:11:31.787Z,6.40
2022-12-05T04:12:55.039Z,6.40
2022-12-05T04:14:17.750Z,6.40
2022-12-05T04:15:38.635Z,6.40
2022-12-05T04:17:01.872Z,6.40
2022-12-05T04:18:25.616Z,6.50
2022-12-05T04:19:48.341Z,6.50
2022-12-05T04:21:09.062Z,6.50
2022-12-05T04:22:29.977Z,6.50
2022-12-05T04:23:50.890Z,6.50
2022-12-05T04:25:13.559Z,6.50
2022-12-05T04:26:34.885Z,6.50
2022-12-05T04:28:02.755Z,6.50
2022-12-05T04:29:27.562Z,6.40
2022-12-05T04:30:53.336Z,6.40
2022-12-05T04:32:13.975Z,6.40
2022-12-05T04:33:42.238Z,6.50
2022-12-05T04:35:08.989Z,6.40
2022-12-05T04:36:31.698Z,6.40
2022-12-05T04:37:56.187Z,6.40
2022-12-05T04:39:19.465Z,6.40
2022-12-05T04:40:44.241Z,6.40
2022-12-05T04:42:07.715Z,6.50
2022-12-05T04:43:29.353Z,6.50
2022-12-05T04:44:53.267Z,6.50
2022-12-05T04:46:16.078Z,6.50
2022-12-05T04:47:41.569Z,6.50
2022-12-05T04:49:07.018Z,6.50
2022-12-05T04:50:29.407Z,6.50
2022-12-05T04:51:51.621Z,6.50
2022-12-05T04:53:13.096Z,6.50
2022-12-05T04:54:37.567Z,6.50
2022-12-05T04:55:59.458Z,6.60
2022-12-05T04:57:22.502Z,6.60
2022-12-05T04:58:42.981Z,6.60
2022-12-05T05:00:04.600Z,6.60
2022-12-05T05:01:28.672Z,6.60
2022-12-05T05:02:52.475Z,6.60
2022-12-05T05:04:17.661Z,6.60
2022-12-05T05:05:39.019Z,6.60
2022-12-05T05:06:59.690Z,6.70
2022-12-05T05:08:24.439Z,6.70
2022-12-05T05:09:45.318Z,6.70
2022-12-05T05:11:11.056Z,6.70
2022-12-05T05:12:31.454Z,6.80
2022-12-05T05:13:52.605Z,6.70
2022-12-05T05:15:13.394Z,6.70
2022-12-05T05:16:36.780Z,6.70
2022-12-05T05:17:57.557Z,6.70
2022-12-05T05:19:19.767Z,6.70
2022-12-05T05:20:40.463Z,6.70
2022-12-05T05:22:01.167Z,6.70
2022-12-05T05:23:22.132Z,6.70
2022-12-05T05:24:42.930Z,6.70
2022-12-05T05:26:03.762Z,6.70
2022-12-05T05:27:25.618Z,6.70
2022-12-05T05:28:46.576Z,6.70
2022-12-05T05:30:08.047Z,6.70
2022-12-05T05:31:30.428Z,6.70
2022-12-05T05:32:50.791Z,6.70
2022-12-05T05:34:12.169Z,6.70
2022-12-05T05:35:36.028Z,6.70
2022-12-05T05:36:56.956Z,6.80
2022-12-05T05:38:17.645Z,6.80
2022-12-05T05:39:38.401Z,6.80
2022-12-05T05:40:59.012Z,6.90
2022-12-05T05:42:19.581Z,6.90
2022-12-05T05:43:40.701Z,6.90
2022-12-05T05:45:01.445Z,6.90
2022-12-05T05:46:25.571Z,6.90
2022-12-05T05:47:48.229Z,6.90
2022-12-05T05:49:10.254Z,6.90
2022-12-05T05:50:31.232Z,6.90
2022-12-05T05:51:53.434Z,6.90
2022-12-05T05:53:13.795Z,6.90
2022-12-05T05:54:34.255Z,6.90
2022-12-05T05:55:55.218Z,6.90
2022-12-05T05:57:20.246Z,6.90
2022-12-05T05:58:41.150Z,7.00
2022-12-05T06:00:01.903Z,6.90
2022-12-05T06:01:22.477Z,7.00
2022-12-05T06:02:43.362Z,6.90
2022-12-05T06:04:04.214Z,7.00
2022-12-05T06:05:25.054Z,7.00
2022-12-05T06:06:45.427Z,7.00
2022-12-05T06:08:07.512Z,7.10
2022-12-05T06:09:28.319Z,7.10
2022-12-05T06:10:49.113Z,7.10
2022-12-05T06:12:09.821Z,7.10
2022-12-05T06:13:30.497Z,7.10
2022-12-05T06:14:51.510Z,7.10
2022-12-05T06:16:13.662Z,7.10
2022-12-05T06:17:34.286Z,7.00
2022-12-05T06:18:55.198Z,7.00
2022-12-05T06:20:15.839Z,7.00
2022-12-05T06:21:36.526Z,7.10
2022-12-05T06:22:57.087Z,7.10
2022-12-05T06:24:19.102Z,7.10
2022-12-05T06:25:39.425Z,7.00
2022-12-05T06:27:00.004Z,7.10
2022-12-05T06:28:23.717Z,7.10
2022-12-05T06:29:44.365Z,7.20
2022-12-05T06:31:07.892Z,7.20
2022-12-05T06:32:29.128Z,7.20
2022-12-05T06:33:49.664Z,7.20
2022-12-05T06:35:10.056Z,7.20
2022-12-05T06:36:31.353Z,7.20
2022-12-05T06:37:51.874Z,7.20
2022-12-05T06:39:12.554Z,7.30
2022-12-05T06:40:34.998Z,7.20
2022-12-05T06:41:55.811Z,7.20
2022-12-05T06:43:16.194Z,7.30
2022-12-05T06:44:37.444Z,7.30
2022-12-05T06:45:59.302Z,7.30
2022-12-05T06:47:20.001Z,7.30
2022-12-05T06:48:40.598Z,7.30
2022-12-05T06:50:01.214Z,7.30
2022-12-05T06:51:21.802Z,7.30
2022-12-05T06:52:42.572Z,7.30
2022-12-05T06:54:03.299Z,7.20
2022-12-05T06:55:23.887Z,7.20
2022-12-05T06:56:45.965Z,7.30
2022-12-05T06:58:06.729Z,7.20
2022-12-05T06:59:27.344Z,7.30
2022-12-05T07:00:48.082Z,7.30
2022-12-05T07:02:09.960Z,7.30
2022-12-05T07:03:30.125Z,7.20
2022-12-05T07:04:50.399Z,7.20
2022-12-05T07:06:11.248Z,7.10
2022-12-05T07:07:31.660Z,7.10
2022-12-05T07:08:52.411Z,7.10
2022-12-05T07:10:13.421Z,7.10
2022-12-05T07:11:34.322Z,7.10
2022-12-05T07:12:56.051Z,7.10
2022-12-05T07:14:38.940Z,7.10
2022-12-05T07:15:57.898Z,7.10
2022-12-05T07:17:18.866Z,7.10
2022-12-05T07:18:39.436Z,7.20
2022-12-05T07:20:00.601Z,7.20
2022-12-05T07:21:21.427Z,7.20
2022-12-05T07:22:41.746Z,7.30
2022-12-05T07:24:02.339Z,7.20
2022-12-05T07:25:22.908Z,7.30
2022-12-05T07:26:43.445Z,7.20
2022-12-05T07:28:05.259Z,7.20
2022-12-05T07:29:25.584Z,7.30
2022-12-05T07:30:46.177Z,7.30
2022-12-05T07:32:07.038Z,7.30
2022-12-05T07:33:27.756Z,7.20
2022-12-05T07:34:53.542Z,7.30
2022-12-05T07:36:16.779Z,7.40
2022-12-05T07:37:37.390Z,7.30
2022-12-05T07:38:58.404Z,7.30
2022-12-05T07:40:19.131Z,7.30
2022-12-05T07:41:39.798Z,7.30
2022-12-05T07:43:00.489Z,7.30
2022-12-05T07:44:22.622Z,7.30
2022-12-05T07:45:43.215Z,7.40
2022-12-05T07:47:03.999Z,7.40
2022-12-05T07:48:24.637Z,7.40
2022-12-05T07:49:45.219Z,7.40
2022-12-05T07:51:06.957Z,7.40
2022-12-05T07:52:27.256Z,7.40
2022-12-05T07:53:47.974Z,7.40
2022-12-05T07:55:08.823Z,7.40
2022-12-05T07:56:29.567Z,7.40
2022-12-05T07:57:50.170Z,7.30
2022-12-05T07:59:10.519Z,7.40
2022-12-05T08:00:32.506Z,7.40
2022-12-05T08:01:53.184Z,7.20
2022-12-05T08:03:13.730Z,7.30
2022-12-05T08:04:34.592Z,7.30
2022-12-05T08:05:54.839Z,7.30
2022-12-05T08:07:15.696Z,7.20
2022-12-05T08:08:36.552Z,7.30
2022-12-05T08:09:57.405Z,7.30
2022-12-05T08:11:20.327Z,7.30
2022-12-05T08:12:40.785Z,7.30
2022-12-05T08:14:01.665Z,7.30
2022-12-05T08:15:22.335Z,7.30
2022-12-05T08:16:44.390Z,7.30
2022-12-05T08:18:05.301Z,7.30
2022-12-05T08:19:26.032Z,7.30
2022-12-05T08:20:46.833Z,7.40
2022-12-05T08:22:07.341Z,7.30
2022-12-05T08:23:29.087Z,7.40
2022-12-05T08:24:55.997Z,7.40
2022-12-05T08:26:18.038Z,7.50
2022-12-05T08:27:38.653Z,7.50
2022-12-05T08:29:01.037Z,7.50
2022-12-05T08:30:21.656Z,7.50
2022-12-05T08:31:45.479Z,7.50
2022-12-05T08:33:06.037Z,7.50
2022-12-05T08:34:26.541Z,7.50
2022-12-05T08:35:48.974Z,7.60
2022-12-05T08:37:09.890Z,7.60
2022-12-05T08:38:31.200Z,7.70
2022-12-05T08:39:51.943Z,7.60
2022-12-05T08:41:13.848Z,7.60
2022-12-05T08:42:34.590Z,7.60
2022-12-05T08:43:58.795Z,7.60
2022-12-05T08:45:19.343Z,7.60
2022-12-05T08:46:39.783Z,7.70
2022-12-05T08:48:01.938Z,7.70
2022-12-05T08:49:23.075Z,7.80
2022-12-05T08:50:43.584Z,7.80
2022-12-05T08:52:04.354Z,7.80
2022-12-05T08:53:25.282Z,7.80
2022-12-05T08:54:45.878Z,7.90
2022-12-05T08:56:08.463Z,7.80
2022-12-05T08:57:28.903Z,7.70
2022-12-05T08:58:49.700Z,7.70
2022-12-05T09:00:11.299Z,7.80
2022-12-05T09:01:31.727Z,7.80
2022-12-05T09:02:52.411Z,7.70
2022-12-05T09:04:14.425Z,7.80
2022-12-05T09:05:35.233Z,7.70
2022-12-05T09:06:56.044Z,7.80
2022-12-05T09:08:16.541Z,7.80
2022-12-05T09:09:37.369Z,7.80
2022-12-05T09:10:57.899Z,7.80
2022-12-05T09:12:18.434Z,7.90
2022-12-05T09:13:39.433Z,7.90
2022-12-05T09:15:00.499Z,7.90
2022-12-05T09:16:23.046Z,7.90
2022-12-05T09:17:43.791Z,7.90
2022-12-05T09:19:04.677Z,8.00
2022-12-05T09:20:26.684Z,8.00
2022-12-05T09:21:47.360Z,8.00
2022-12-05T09:23:12.976Z,8.00
2022-12-05T09:24:36.760Z,8.00
2022-12-05T09:25:57.124Z,7.90
2022-12-05T09:27:17.385Z,7.70
2022-12-05T09:28:39.834Z,7.80
2022-12-05T09:30:00.666Z,7.80
2022-12-05T09:31:23.297Z,7.80
2022-12-05T09:32:44.187Z,7.80
2022-12-05T09:34:04.700Z,7.80
2022-12-05T09:35:26.828Z,7.80
2022-12-05T09:36:47.699Z,7.80
2022-12-05T09:38:08.453Z,7.90
2022-12-05T09:39:28.897Z,7.90
2022-12-05T09:40:56.388Z,7.80
2022-12-05T09:42:30.183Z,7.90
2022-12-05T09:43:56.331Z,7.90
2022-12-05T09:45:23.756Z,7.90
2022-12-05T09:46:51.324Z,7.90
2022-12-05T09:48:14.374Z,7.90
2022-12-05T09:49:38.976Z,7.90
2022-12-05T09:51:03.233Z,7.90
2022-12-05T09:52:27.000Z,7.90
2022-12-05T09:53:47.507Z,7.90
2022-12-05T09:55:13.943Z,8.00
2022-12-05T09:56:34.273Z,8.00
2022-12-05T09:57:58.070Z,8.00
2022-12-05T09:59:19.702Z,8.00
2022-12-05T10:00:40.775Z,8.00
2022-12-05T10:02:06.530Z,8.00
2022-12-05T10:03:33.386Z,7.90
2022-12-05T10:05:00.387Z,7.90
2022-12-05T10:06:24.772Z,8.00
2022-12-05T10:07:53.051Z,8.00
2022-12-05T10:09:24.802Z,8.00
2022-12-05T10:10:59.517Z,8.00
2022-12-05T10:12:27.169Z,8.00
2022-12-05T10:13:53.464Z,8.00
2022-12-05T10:15:17.161Z,8.10
2022-12-05T10:16:40.417Z,8.00
2022-12-05T10:18:03.893Z,8.00
2022-12-05T10:19:28.936Z,8.10
2022-12-05T10:20:52.618Z,8.10
2022-12-05T10:22:20.696Z,8.10
2022-12-05T10:23:57.689Z,8.10
2022-12-05T10:25:20.547Z,8.20
2022-12-05T10:26:44.465Z,8.20
2022-12-05T10:28:11.676Z,8.10
2022-12-05T10:29:35.647Z,8.10
2022-12-05T10:30:57.166Z,8.20
2022-12-05T10:32:20.396Z,8.10
2022-12-05T10:33:44.865Z,8.10
2022-12-05T10:35:16.244Z,8.10
2022-12-05T10:36:36.604Z,8.10
2022-12-05T10:38:00.183Z,8.10
2022-12-05T10:39:20.849Z,8.20
2022-12-05T10:40:43.204Z,8.20
2022-12-05T10:42:04.185Z,8.20
2022-12-05T10:43:26.737Z,8.30
2022-12-05T10:44:48.719Z,8.30
2022-12-05T10:46:14.119Z,8.30
2022-12-05T10:47:37.291Z,8.30
2022-12-05T10:48:58.430Z,8.20
2022-12-05T10:50:29.022Z,8.30
2022-12-05T10:51:50.092Z,8.20
2022-12-05T10:53:15.933Z,8.30
2022-12-05T10:54:42.475Z,8.30
2022-12-05T10:57:49.646Z,8.30
2022-12-05T10:59:13.177Z,8.30
2022-12-05T11:00:34.290Z,8.30
2022-12-05T11:01:57.210Z,8.30
2022-12-05T11:03:26.784Z,8.20
2022-12-05T11:04:47.352Z,8.30
2022-12-05T11:06:16.559Z,8.20
2022-12-05T11:07:46.369Z,8.30
2022-12-05T11:09:19.825Z,8.30
2022-12-05T11:10:40.179Z,8.30
2022-12-05T11:12:04.486Z,8.30
2022-12-05T11:13:26.193Z,8.30
2022-12-05T11:15:01.988Z,8.30
2022-12-05T11:16:25.711Z,8.10
2022-12-05T11:17:46.614Z,8.10
2022-12-05T11:19:26.940Z,8.20
2022-12-05T11:20:47.571Z,8.20
2022-12-05T11:22:17.132Z,8.20
2022-12-05T11:23:37.945Z,8.20
2022-12-05T11:25:00.015Z,8.20
2022-12-05T11:26:35.317Z,8.30
2022-12-05T11:28:01.610Z,8.30
2022-12-05T11:29:33.930Z,8.20
2022-12-05T11:30:57.746Z,8.20
2022-12-05T11:32:19.683Z,8.10
2022-12-05T11:33:41.025Z,8.20
2022-12-05T11:35:08.845Z,8.00
2022-12-05T11:36:36.732Z,8.10
2022-12-05T11:38:00.494Z,8.20
2022-12-05T11:39:21.160Z,8.20
2022-12-05T11:40:49.940Z,8.10
2022-12-05T11:42:22.090Z,8.20
2022-12-05T11:43:53.500Z,8.20
2022-12-05T11:45:37.731Z,8.20
2022-12-05T11:47:07.623Z,8.30
2022-12-05T11:48:59.147Z,8.20
2022-12-05T11:50:28.753Z,8.30
2022-12-05T11:51:55.808Z,8.30
2022-12-05T11:53:30.575Z,8.40
2022-12-05T11:55:05.975Z,8.40
2022-12-05T11:56:36.419Z,8.30
2022-12-05T11:58:28.835Z,8.30
2022-12-05T12:00:05.747Z,8.30
2022-12-05T12:01:34.612Z,8.30
2022-12-05T12:03:33.965Z,8.30
2022-12-05T12:04:58.101Z,8.30
2022-12-05T12:06:25.567Z,8.30
2022-12-05T12:07:56.720Z,8.40
2022-12-05T12:09:29.972Z,8.30
2022-12-05T12:10:57.444Z,8.40
2022-12-05T12:12:25.275Z,8.40
2022-12-05T12:13:58.260Z,8.40
2022-12-05T12:15:38.916Z,8.40
2022-12-05T12:17:06.373Z,8.50
2022-12-05T12:19:02.484Z,8.50
2022-12-05T12:20:32.969Z,8.50
2022-12-05T12:22:09.427Z,8.50
2022-12-05T12:23:42.787Z,8.40
2022-12-05T12:25:13.474Z,8.50
2022-12-05T12:26:43.329Z,8.50
2022-12-05T12:28:17.405Z,8.50
2022-12-05T12:29:49.423Z,8.50
2022-12-05T12:31:24.911Z,8.60
2022-12-05T12:32:58.364Z,8.60
2022-12-05T12:34:34.833Z,8.60
2022-12-05T12:35:58.918Z,8.60
2022-12-05T12:37:28.047Z,8.60
2022-12-05T12:39:00.830Z,8.60
2022-12-05T12:40:23.183Z,8.70
2022-12-05T12:41:59.837Z,8.70
2022-12-05T12:45:30.190Z,8.70
2022-12-05T12:46:55.367Z,8.70
2022-12-05T12:48:28.188Z,8.70
2022-12-05T12:49:58.179Z,8.70
2022-12-05T12:51:19.099Z,8.70
2022-12-05T12:53:03.972Z,8.70
2022-12-05T12:55:02.047Z,8.70
2022-12-05T12:56:22.974Z,8.60
2022-12-05T12:57:56.245Z,8.60
2022-12-05T12:59:35.781Z,8.60
2022-12-05T13:01:01.742Z,8.60
2022-12-05T13:02:27.203Z,8.60
2022-12-05T13:03:51.843Z,8.60
2022-12-05T13:05:22.769Z,8.60
2022-12-05T13:06:46.643Z,8.60
2022-12-05T13:08:13.940Z,8.60
2022-12-05T13:09:37.717Z,8.60
2022-12-05T13:10:59.788Z,8.50
2022-12-05T13:12:23.848Z,8.60
2022-12-05T13:13:46.693Z,8.60
2022-12-05T13:15:14.111Z,8.60
2022-12-05T13:16:42.532Z,8.60
2022-12-05T13:18:05.853Z,8.50
2022-12-05T13:19:29.319Z,8.50
2022-12-05T13:20:51.909Z,8.50
2022-12-05T13:22:12.964Z,8.50
2022-12-05T13:23:36.663Z,8.50
2022-12-05T13:24:57.686Z,8.50
2022-12-05T13:26:18.892Z,8.60
2022-12-05T13:27:39.359Z,8.50
2022-12-05T13:29:01.966Z,8.50
2022-12-05T13:30:24.231Z,8.60
2022-12-05T13:31:45.917Z,8.50
2022-12-05T13:33:09.504Z,8.60
2022-12-05T13:34:48.090Z,8.60
2022-12-05T13:36:15.653Z,8.60
2022-12-05T13:37:45.828Z,8.60
2022-12-05T13:39:13.087Z,8.60
2022-12-05T13:40:35.585Z,8.70
2022-12-05T13:41:59.599Z,8.60
2022-12-05T13:43:23.220Z,8.70
2022-12-05T13:44:49.419Z,8.60
2022-12-05T13:46:12.501Z,8.60
2022-12-05T13:47:35.293Z,8.60
2022-12-05T13:49:05.116Z,8.60
2022-12-05T13:50:31.602Z,8.70
2022-12-05T13:51:52.009Z,8.60
2022-12-05T13:53:28.677Z,8.70
2022-12-05T13:54:56.019Z,8.70
2022-12-05T13:56:29.447Z,8.70
2022-12-05T13:57:54.385Z,8.70
2022-12-05T13:59:48.391Z,8.70
2022-12-05T14:01:49.131Z,8.70
2022-12-05T14:03:16.997Z,8.80
2022-12-05T14:04:47.436Z,8.70
2022-12-05T14:06:07.742Z,8.80
2022-12-05T14:07:45.157Z,8.70
2022-12-05T14:09:28.288Z,8.80
2022-12-05T14:11:10.655Z,8.60
2022-12-05T14:12:37.982Z,8.70
2022-12-05T14:14:04.331Z,8.70
2022-12-05T14:15:33.994Z,8.70
2022-12-05T14:16:59.099Z,8.80
2022-12-05T14:18:24.777Z,8.80
2022-12-05T14:19:57.564Z,8.80
2022-12-05T14:21:21.761Z,8.70
2022-12-05T14:23:11.259Z,8.60
2022-12-05T14:24:35.231Z,8.60
2022-12-05T14:26:08.993Z,8.70
2022-12-05T14:27:42.121Z,8.80
2022-12-05T14:29:41.713Z,8.80
2022-12-05T14:31:15.464Z,8.80
2022-12-05T14:32:39.307Z,8.80
2022-12-05T14:34:13.286Z,8.90
2022-12-05T14:35:41.633Z,8.80
2022-12-05T14:37:03.959Z,8.70
2022-12-05T14:38:28.422Z,8.70
2022-12-05T14:39:51.318Z,8.70
2022-12-05T14:41:14.274Z,8.70
2022-12-05T14:42:37.343Z,8.70
2022-12-05T14:43:58.053Z,8.70
2022-12-05T14:45:28.299Z,8.70
2022-12-05T14:46:48.744Z,8.70
2022-12-05T14:48:28.168Z,8.70
2022-12-05T14:50:08.027Z,8.80
2022-12-05T14:51:55.910Z,8.80
2022-12-05T14:53:36.812Z,8.80
2022-12-05T14:55:04.037Z,8.70
2022-12-05T14:56:26.247Z,8.70
2022-12-05T14:57:48.797Z,8.70
2022-12-05T14:59:23.988Z,8.70
2022-12-05T15:00:48.187Z,8.60
2022-12-05T15:02:16.791Z,8.60
2022-12-05T15:03:40.656Z,8.50
2022-12-05T15:05:04.292Z,8.50
2022-12-05T15:06:26.872Z,8.60
2022-12-05T15:07:47.802Z,8.60
2022-12-05T15:09:35.985Z,8.60
2022-12-05T15:10:52.097Z,8.60
2022-12-05T15:12:16.138Z,8.60
2022-12-05T15:13:36.604Z,8.60
2022-12-05T15:15:03.961Z,8.60
2022-12-05T15:16:25.151Z,8.60
2022-12-05T15:17:48.342Z,8.70
2022-12-05T15:19:17.166Z,8.70
2022-12-05T15:20:42.735Z,8.70
2022-12-05T15:22:06.861Z,8.80
2022-12-05T15:23:41.170Z,8.70
2022-12-05T15:25:25.617Z,8.70
2022-12-05T15:26:48.452Z,8.70
2022-12-05T15:28:19.148Z,8.80
2022-12-05T15:29:40.340Z,8.70
2022-12-05T15:31:00.889Z,8.70
2022-12-05T15:32:24.822Z,8.70
2022-12-05T15:33:50.920Z,8.70
2022-12-05T15:35:13.200Z,8.70
2022-12-05T15:36:36.180Z,8.70
2022-12-05T15:37:58.762Z,8.70
2022-12-05T15:39:21.952Z,8.60
2022-12-05T15:40:46.219Z,8.60
2022-12-05T15:42:11.741Z,8.60
2022-12-05T15:43:33.581Z,8.60
2022-12-05T15:44:57.695Z,8.70
2022-12-05T15:46:20.474Z,8.70
2022-12-05T15:47:41.941Z,8.70
2022-12-05T15:49:16.701Z,8.70
2022-12-05T15:50:40.550Z,8.80
2022-12-05T15:52:10.145Z,8.80
2022-12-05T15:53:32.325Z,8.70
2022-12-05T15:54:53.427Z,8.60
2022-12-05T15:56:15.976Z,8.60
2022-12-05T15:57:41.405Z,8.70
2022-12-05T15:59:04.604Z,8.70
2022-12-05T16:00:25.756Z,8.70
2022-12-05T16:01:49.448Z,8.70
2022-12-05T16:03:13.382Z,8.60
2022-12-05T16:04:36.949Z,8.60
2022-12-05T16:06:04.001Z,8.60
2022-12-05T16:07:26.152Z,8.70
2022-12-05T16:08:47.404Z,8.70
2022-12-05T16:10:13.528Z,8.70
2022-12-05T16:11:34.134Z,8.60
2022-12-05T16:12:54.675Z,8.70
2022-12-05T16:14:30.961Z,8.70
2022-12-05T16:15:56.084Z,8.70
2022-12-05T16:17:17.328Z,8.70
2022-12-05T16:18:37.787Z,8.80
2022-12-05T16:20:11.336Z,8.80
2022-12-05T16:21:38.559Z,8.80
2022-12-05T16:23:01.804Z,8.80
2022-12-05T16:24:27.378Z,8.80
2022-12-05T16:25:47.617Z,8.80
2022-12-05T16:27:14.770Z,8.80
2022-12-05T16:28:35.173Z,8.80
2022-12-05T16:30:17.985Z,8.70
2022-12-05T16:31:45.233Z,8.70
2022-12-05T16:33:07.412Z,8.70
2022-12-05T16:34:29.892Z,8.70
2022-12-05T16:35:50.792Z,8.70
2022-12-05T16:37:22.775Z,8.70
2022-12-05T16:38:43.536Z,8.60
2022-12-05T16:40:04.941Z,8.60
2022-12-05T16:41:33.138Z,8.50
2022-12-05T16:43:01.515Z,8.50
2022-12-05T16:44:59.014Z,8.40
2022-12-05T16:46:41.478Z,8.50
2022-12-05T16:48:02.170Z,8.60
2022-12-05T16:49:32.175Z,8.50
2022-12-05T16:50:53.607Z,8.50
2022-12-05T16:52:14.820Z,8.60
2022-12-05T16:53:36.805Z,8.60
2022-12-05T16:54:57.418Z,8.60
2022-12-05T16:56:20.524Z,8.60
2022-12-05T16:57:41.159Z,8.50
2022-12-05T16:59:02.833Z,8.50
2022-12-05T17:00:23.115Z,8.60
2022-12-05T17:01:43.763Z,8.60
2022-12-05T17:03:32.244Z,8.60
2022-12-05T17:04:45.451Z,8.60
2022-12-05T17:06:06.341Z,8.60
2022-12-05T17:07:29.735Z,8.50
2022-12-05T17:08:55.671Z,8.50
2022-12-05T17:10:16.452Z,8.50
2022-12-05T17:11:38.141Z,8.50
2022-12-05T17:12:58.827Z,8.40
2022-12-05T17:14:19.774Z,8.40
2022-12-05T17:15:40.139Z,8.50
2022-12-05T17:17:03.355Z,8.50
2022-12-05T17:18:29.563Z,8.50
2022-12-05T17:19:51.931Z,8.50
2022-12-05T17:21:14.194Z,8.60
2022-12-05T17:22:34.843Z,8.60
2022-12-05T17:23:57.539Z,8.50
2022-12-05T17:25:23.126Z,8.40
2022-12-05T17:26:44.768Z,8.40
2022-12-05T17:28:05.330Z,8.50
2022-12-05T17:29:27.990Z,8.50
2022-12-05T17:30:51.698Z,8.50
2022-12-05T17:32:12.606Z,8.50
2022-12-05T17:33:35.300Z,8.60
2022-12-05T17:34:56.026Z,8.50
2022-12-05T17:36:16.872Z,8.60
2022-12-05T17:37:37.280Z,8.60
2022-12-05T17:38:58.970Z,8.50
2022-12-05T17:40:19.736Z,8.50
2022-12-05T17:41:40.295Z,8.60
2022-12-05T17:43:00.772Z,8.60
2022-12-05T17:44:21.324Z,8.50
2022-12-05T17:45:42.453Z,8.50
2022-12-05T17:47:07.680Z,8.50
2022-12-05T17:48:28.790Z,8.60
2022-12-05T17:49:49.220Z,8.70
2022-12-05T17:51:09.801Z,8.70
2022-12-05T17:52:30.476Z,8.70
2022-12-05T17:53:51.433Z,8.60
2022-12-05T17:55:29.015Z,8.60
2022-12-05T17:56:49.964Z,8.60
2022-12-05T17:58:10.946Z,8.70
2022-12-05T17:59:31.745Z,8.60
2022-12-05T18:00:52.802Z,8.60
2022-12-05T18:02:13.655Z,8.60
2022-12-05T18:03:34.601Z,8.50
2022-12-05T18:04:55.848Z,8.50
2022-12-05T18:06:16.822Z,8.50
2022-12-05T18:07:37.771Z,8.50
2022-12-05T18:08:58.263Z,8.50
2022-12-05T18:10:22.150Z,8.50
2022-12-05T18:11:43.033Z,8.60
2022-12-05T18:13:03.937Z,8.60
2022-12-05T18:14:28.300Z,8.50
2022-12-05T18:16:05.867Z,8.40
2022-12-05T18:17:37.926Z,8.40
2022-12-05T18:18:59.257Z,8.30
2022-12-05T18:20:24.344Z,8.30
2022-12-05T18:21:55.617Z,8.40
2022-12-05T18:23:17.343Z,8.50
2022-12-05T18:24:37.943Z,8.40
2022-12-05T18:26:06.234Z,8.40
2022-12-05T18:27:30.326Z,8.40
2022-12-05T18:28:55.189Z,8.40
2022-12-05T18:30:15.989Z,8.40
2022-12-05T18:31:36.902Z,8.50
2022-12-05T18:32:57.134Z,8.50
2022-12-05T18:34:17.821Z,8.50
2022-12-05T18:35:40.720Z,8.50
2022-12-05T18:37:01.488Z,8.60
2022-12-05T18:38:21.912Z,8.50
2022-12-05T18:39:42.582Z,8.40
2022-12-05T18:41:05.933Z,8.30
2022-12-05T18:42:26.207Z,8.30
2022-12-05T18:43:46.902Z,8.30
2022-12-05T18:45:08.450Z,8.30
2022-12-05T18:46:28.931Z,8.30
2022-12-05T18:47:49.578Z,8.30
2022-12-05T18:49:11.769Z,8.20